sensor_id;sensor_type;location;lat;lon;timestamp;pressure;altitude;pressure_sealevel;temperature;humidity
11523;BME280;40093;43.224;27.910;2022-09-29T00:01:05;99540.25;;;20.87;100.00
11523;BME280;40093;43.224;27.910;2022-09-29T00:03:32;99541.16;;;20.84;100.00
11523;BME280;40093;43.224;27.910;2022-09-29T00:05:59;99542.75;;;20.85;100.00
11523;BME280;40093;43.224;27.910;2022-09-29T00:08:28;99534.34;;;20.76;100.00
11523;BME280;40093;43.224;27.910;2022-09-29T00:10:55;99533.09;;;20.68;100.00
11523;BME280;40093;43.224;27.910;2022-09-29T00:13:24;99525.00;;;20.70;100.00
11523;BME280;40093;43.224;27.910;2022-09-29T00:15:55;99517.25;;;20.83;100.00
11523;BME280;40093;43.224;27.910;2022-09-29T00:18:22;99508.88;;;20.92;100.00
11523;BME280;40093;43.224;27.910;2022-09-29T00:20:56;99518.00;;;21.02;100.00
11523;BME280;40093;43.224;27.910;2022-09-29T00:23:23;99517.03;;;21.14;100.00
11523;BME280;40093;43.224;27.910;2022-09-29T00:25:59;99510.63;;;21.22;100.00
11523;BME280;40093;43.224;27.910;2022-09-29T00:28:28;99514.38;;;21.28;100.00
11523;BME280;40093;43.224;27.910;2022-09-29T00:30:54;99519.63;;;21.35;100.00
11523;BME280;40093;43.224;27.910;2022-09-29T00:33:23;99513.69;;;21.42;100.00
11523;BME280;40093;43.224;27.910;2022-09-29T00:35:56;99499.69;;;21.42;100.00
11523;BME280;40093;43.224;27.910;2022-09-29T00:38:24;99516.75;;;21.53;100.00
11523;BME280;40093;43.224;27.910;2022-09-29T00:40:51;99515.50;;;21.54;100.00
11523;BME280;40093;43.224;27.910;2022-09-29T00:43:21;99496.59;;;21.40;100.00
11523;BME280;40093;43.224;27.910;2022-09-29T00:45:51;99515.59;;;21.36;100.00
11523;BME280;40093;43.224;27.910;2022-09-29T00:48:24;99529.59;;;21.27;100.00
11523;BME280;40093;43.224;27.910;2022-09-29T00:50:55;99530.56;;;21.24;100.00
11523;BME280;40093;43.224;27.910;2022-09-29T00:53:22;99527.13;;;21.20;100.00
11523;BME280;40093;43.224;27.910;2022-09-29T00:55:53;99518.91;;;21.17;100.00
11523;BME280;40093;43.224;27.910;2022-09-29T00:58:27;99521.41;;;21.06;100.00
11523;BME280;40093;43.224;27.910;2022-09-29T01:00:59;99523.16;;;20.94;100.00
11523;BME280;40093;43.224;27.910;2022-09-29T01:03:29;99535.13;;;20.86;100.00
11523;BME280;40093;43.224;27.910;2022-09-29T01:05:59;99530.00;;;20.75;100.00
11523;BME280;40093;43.224;27.910;2022-09-29T01:08:31;99538.38;;;20.66;100.00
11523;BME280;40093;43.224;27.910;2022-09-29T01:11:01;99544.28;;;20.59;100.00
11523;BME280;40093;43.224;27.910;2022-09-29T01:13:28;99551.56;;;20.39;100.00
11523;BME280;40093;43.224;27.910;2022-09-29T01:15:55;99545.81;;;20.25;100.00
11523;BME280;40093;43.224;27.910;2022-09-29T01:18:24;99550.63;;;20.15;100.00
11523;BME280;40093;43.224;27.910;2022-09-29T01:20:57;99552.16;;;20.16;100.00
11523;BME280;40093;43.224;27.910;2022-09-29T01:29:55;99537.41;;;20.16;100.00
11523;BME280;40093;43.224;27.910;2022-09-29T01:32:37;99537.34;;;19.89;100.00
11523;BME280;40093;43.224;27.910;2022-09-29T01:35:14;99540.41;;;19.82;100.00
11523;BME280;40093;43.224;27.910;2022-09-29T01:37:53;99537.31;;;19.80;100.00
11523;BME280;40093;43.224;27.910;2022-09-29T01:40:28;99538.41;;;19.82;100.00
11523;BME280;40093;43.224;27.910;2022-09-29T01:43:03;99547.25;;;19.90;100.00
11523;BME280;40093;43.224;27.910;2022-09-29T01:45:33;99552.28;;;20.04;100.00
11523;BME280;40093;43.224;27.910;2022-09-29T01:48:06;99545.03;;;20.15;100.00
11523;BME280;40093;43.224;27.910;2022-09-29T01:50:37;99545.22;;;20.30;100.00
11523;BME280;40093;43.224;27.910;2022-09-29T01:53:08;99542.06;;;20.10;100.00
11523;BME280;40093;43.224;27.910;2022-09-29T01:55:42;99538.97;;;20.26;100.00
11523;BME280;40093;43.224;27.910;2022-09-29T01:58:14;99541.50;;;20.41;100.00
11523;BME280;40093;43.224;27.910;2022-09-29T02:00:47;99542.09;;;20.45;100.00
11523;BME280;40093;43.224;27.910;2022-09-29T02:03:20;99550.94;;;20.53;100.00
11523;BME280;40093;43.224;27.910;2022-09-29T02:05:51;99560.75;;;20.57;100.00
11523;BME280;40093;43.224;27.910;2022-09-29T02:08:24;99552.34;;;20.66;100.00
11523;BME280;40093;43.224;27.910;2022-09-29T02:10:56;99550.16;;;20.70;100.00
11523;BME280;40093;43.224;27.910;2022-09-29T02:13:25;99552.66;;;20.77;100.00
11523;BME280;40093;43.224;27.910;2022-09-29T02:15:56;99543.31;;;20.80;100.00
11523;BME280;40093;43.224;27.910;2022-09-29T02:18:28;99546.75;;;20.84;100.00
11523;BME280;40093;43.224;27.910;2022-09-29T02:20:56;99543.97;;;20.84;100.00
11523;BME280;40093;43.224;27.910;2022-09-29T02:23:23;99544.13;;;20.72;100.00
11523;BME280;40093;43.224;27.910;2022-09-29T02:25:50;99542.41;;;20.74;100.00
11523;BME280;40093;43.224;27.910;2022-09-29T02:28:18;99542.88;;;20.82;100.00
11523;BME280;40093;43.224;27.910;2022-09-29T02:30:45;99544.13;;;20.81;100.00
11523;BME280;40093;43.224;27.910;2022-09-29T02:33:19;99545.81;;;20.78;100.00
11523;BME280;40093;43.224;27.910;2022-09-29T02:36:14;99544.56;;;20.79;100.00
11523;BME280;40093;43.224;27.910;2022-09-29T02:38:49;99544.56;;;20.79;100.00
11523;BME280;40093;43.224;27.910;2022-09-29T02:41:27;99546.31;;;20.77;100.00
11523;BME280;40093;43.224;27.910;2022-09-29T02:44:10;99548.00;;;20.74;100.00
11523;BME280;40093;43.224;27.910;2022-09-29T02:46:50;99552.81;;;20.74;100.00
11523;BME280;40093;43.224;27.910;2022-09-29T02:49:29;99542.41;;;20.74;100.00
11523;BME280;40093;43.224;27.910;2022-09-29T02:52:06;99542.13;;;20.72;100.00
11523;BME280;40093;43.224;27.910;2022-09-29T02:54:48;99531.22;;;20.47;100.00
11523;BME280;40093;43.224;27.910;2022-09-29T02:57:26;99538.53;;;20.54;100.00
11523;BME280;40093;43.224;27.910;2022-09-29T03:00:00;99532.19;;;20.53;100.00
11523;BME280;40093;43.224;27.910;2022-09-29T03:02:32;99538.53;;;20.54;100.00
11523;BME280;40093;43.224;27.910;2022-09-29T03:05:00;99543.06;;;20.51;100.00
11523;BME280;40093;43.224;27.910;2022-09-29T03:07:28;99534.66;;;20.42;100.00
11523;BME280;40093;43.224;27.910;2022-09-29T03:09:56;99543.34;;;20.18;100.00
11523;BME280;40093;43.224;27.910;2022-09-29T03:12:23;99534.88;;;20.00;100.00
11523;BME280;40093;43.224;27.910;2022-09-29T03:14:50;99549.28;;;19.89;100.00
11523;BME280;40093;43.224;27.910;2022-09-29T03:17:17;99545.06;;;19.76;100.00
11523;BME280;40093;43.224;27.910;2022-09-29T03:19:44;99539.47;;;19.76;100.00
11523;BME280;40093;43.224;27.910;2022-09-29T03:22:11;99548.44;;;19.71;100.00
11523;BME280;40093;43.224;27.910;2022-09-29T03:24:39;99535.56;;;19.64;100.00
11523;BME280;40093;43.224;27.910;2022-09-29T03:27:06;99540.97;;;19.59;100.00
11523;BME280;40093;43.224;27.910;2022-09-29T03:29:34;99523.28;;;19.62;100.00
11523;BME280;40093;43.224;27.910;2022-09-29T03:32:01;99540.50;;;19.69;100.00
11523;BME280;40093;43.224;27.910;2022-09-29T03:34:28;99545.56;;;19.53;100.00
11523;BME280;40093;43.224;27.910;2022-09-29T03:36:55;99544.06;;;19.61;100.00
11523;BME280;40093;43.224;27.910;2022-09-29T03:39:22;99538.19;;;19.68;100.00
11523;BME280;40093;43.224;27.910;2022-09-29T03:41:51;99549.06;;;19.75;100.00
11523;BME280;40093;43.224;27.910;2022-09-29T03:44:18;99542.59;;;19.78;100.00
11523;BME280;40093;43.224;27.910;2022-09-29T03:46:45;99536.97;;;19.69;100.00
11523;BME280;40093;43.224;27.910;2022-09-29T03:49:12;99548.16;;;19.78;100.00
11523;BME280;40093;43.224;27.910;2022-09-29T03:51:40;99554.38;;;19.82;100.00
11523;BME280;40093;43.224;27.910;2022-09-29T03:54:07;99540.09;;;19.80;100.00
11523;BME280;40093;43.224;27.910;2022-09-29T03:56:35;99543.06;;;19.85;100.00
11523;BME280;40093;43.224;27.910;2022-09-29T03:59:03;99545.81;;;19.76;100.00
11523;BME280;40093;43.224;27.910;2022-09-29T04:01:32;99539.31;;;19.40;100.00
11523;BME280;40093;43.224;27.910;2022-09-29T04:04:00;99537.22;;;19.01;100.00
11523;BME280;40093;43.224;27.910;2022-09-29T04:06:27;99537.41;;;18.85;100.00
11523;BME280;40093;43.224;27.910;2022-09-29T04:08:53;99539.97;;;18.92;100.00
11523;BME280;40093;43.224;27.910;2022-09-29T04:11:20;99536.69;;;18.93;100.00
11523;BME280;40093;43.224;27.910;2022-09-29T04:13:47;99543.88;;;19.03;100.00
11523;BME280;40093;43.224;27.910;2022-09-29T04:16:15;99544.16;;;19.18;100.00
11523;BME280;40093;43.224;27.910;2022-09-29T04:18:42;99548.16;;;19.38;100.00
11523;BME280;40093;43.224;27.910;2022-09-29T04:21:10;99541.53;;;19.45;100.00
11523;BME280;40093;43.224;27.910;2022-09-29T04:23:37;99545.56;;;19.53;100.00
11523;BME280;40093;43.224;27.910;2022-09-29T04:26:04;99547.50;;;19.74;100.00
11523;BME280;40093;43.224;27.910;2022-09-29T04:28:32;99558.19;;;20.06;100.00
11523;BME280;40093;43.224;27.910;2022-09-29T04:30:59;99547.09;;;20.41;100.00
11523;BME280;40093;43.224;27.910;2022-09-29T04:33:28;99555.47;;;20.68;100.00
11523;BME280;40093;43.224;27.910;2022-09-29T04:35:56;99549.88;;;21.04;100.00
11523;BME280;40093;43.224;27.910;2022-09-29T04:38:22;99544.78;;;21.44;100.00
11523;BME280;40093;43.224;27.910;2022-09-29T04:40:49;99530.03;;;21.76;100.00
11523;BME280;40093;43.224;27.910;2022-09-29T04:43:16;99551.00;;;22.13;100.00
11523;BME280;40093;43.224;27.910;2022-09-29T04:45:43;99545.28;;;22.31;100.00
11523;BME280;40093;43.224;27.910;2022-09-29T04:48:10;99553.81;;;22.60;100.00
11523;BME280;40093;43.224;27.910;2022-09-29T04:50:39;99567.31;;;22.85;100.00
11523;BME280;40093;43.224;27.910;2022-09-29T04:53:05;99562.31;;;23.03;100.00
11523;BME280;40093;43.224;27.910;2022-09-29T04:55:33;99566.72;;;23.19;100.00
11523;BME280;40093;43.224;27.910;2022-09-29T04:57:59;99571.81;;;23.49;100.00
11523;BME280;40093;43.224;27.910;2022-09-29T05:00:26;99585.28;;;23.60;100.00
11523;BME280;40093;43.224;27.910;2022-09-29T05:02:53;99577.66;;;23.17;100.00
11523;BME280;40093;43.224;27.910;2022-09-29T05:05:20;99577.78;;;22.99;100.00
11523;BME280;40093;43.224;27.910;2022-09-29T05:07:48;99580.19;;;22.92;100.00
11523;BME280;40093;43.224;27.910;2022-09-29T05:10:15;99569.97;;;22.65;100.00
11523;BME280;40093;43.224;27.910;2022-09-29T05:12:46;99577.38;;;22.77;100.00
11523;BME280;40093;43.224;27.910;2022-09-29T05:15:14;99583.97;;;23.03;100.00
11523;BME280;40093;43.224;27.910;2022-09-29T05:17:42;99583.28;;;23.31;100.00
11523;BME280;40093;43.224;27.910;2022-09-29T05:20:09;99583.06;;;23.64;100.00
11523;BME280;40093;43.224;27.910;2022-09-29T05:22:36;99580.50;;;23.95;100.00
11523;BME280;40093;43.224;27.910;2022-09-29T05:25:05;99588.34;;;24.25;100.00
11523;BME280;40093;43.224;27.910;2022-09-29T05:27:33;99587.31;;;24.43;100.00
11523;BME280;40093;43.224;27.910;2022-09-29T05:30:00;99597.13;;;24.67;100.00
11523;BME280;40093;43.224;27.910;2022-09-29T05:32:27;99597.31;;;24.84;100.00
11523;BME280;40093;43.224;27.910;2022-09-29T05:34:55;99605.91;;;24.95;100.00
11523;BME280;40093;43.224;27.910;2022-09-29T05:37:22;99603.25;;;25.11;100.00
11523;BME280;40093;43.224;27.910;2022-09-29T05:39:49;99625.66;;;25.20;100.00
11523;BME280;40093;43.224;27.910;2022-09-29T05:42:17;99624.56;;;25.18;100.00
11523;BME280;40093;43.224;27.910;2022-09-29T05:44:44;99616.84;;;25.13;100.00
11523;BME280;40093;43.224;27.910;2022-09-29T05:47:11;99622.47;;;25.13;100.00
11523;BME280;40093;43.224;27.910;2022-09-29T05:49:38;99618.16;;;25.37;100.00
11523;BME280;40093;43.224;27.910;2022-09-29T05:52:05;99597.94;;;25.39;100.00
11523;BME280;40093;43.224;27.910;2022-09-29T05:54:32;99612.09;;;25.75;100.00
11523;BME280;40093;43.224;27.910;2022-09-29T05:56:59;99609.94;;;25.90;100.00
11523;BME280;40093;43.224;27.910;2022-09-29T05:59:27;99605.16;;;26.01;100.00
11523;BME280;40093;43.224;27.910;2022-09-29T06:01:54;99591.75;;;26.27;100.00
11523;BME280;40093;43.224;27.910;2022-09-29T06:04:20;99592.88;;;26.46;100.00
11523;BME280;40093;43.224;27.910;2022-09-29T06:06:47;99594.78;;;26.66;100.00
11523;BME280;40093;43.224;27.910;2022-09-29T06:09:14;99589.72;;;26.81;100.00
11523;BME280;40093;43.224;27.910;2022-09-29T06:11:41;99597.72;;;26.93;100.00
11523;BME280;40093;43.224;27.910;2022-09-29T06:14:08;99600.31;;;27.02;100.00
11523;BME280;40093;43.224;27.910;2022-09-29T06:16:36;99603.22;;;27.24;100.00
11523;BME280;40093;43.224;27.910;2022-09-29T06:19:04;99604.25;;;27.27;100.00
11523;BME280;40093;43.224;27.910;2022-09-29T06:21:31;99602.19;;;27.27;100.00
11523;BME280;40093;43.224;27.910;2022-09-29T06:24:00;99598.88;;;27.34;100.00
11523;BME280;40093;43.224;27.910;2022-09-29T06:26:27;99602.22;;;27.38;100.00
11523;BME280;40093;43.224;27.910;2022-09-29T06:28:54;99611.22;;;27.53;100.00
11523;BME280;40093;43.224;27.910;2022-09-29T06:31:23;99612.78;;;27.60;100.00
11523;BME280;40093;43.224;27.910;2022-09-29T06:33:51;99601.97;;;27.69;100.00
11523;BME280;40093;43.224;27.910;2022-09-29T06:36:20;99610.44;;;27.42;100.00
11523;BME280;40093;43.224;27.910;2022-09-29T06:39:08;99610.19;;;27.56;100.00
11523;BME280;40093;43.224;27.910;2022-09-29T06:41:35;99612.53;;;27.63;100.00
11523;BME280;40093;43.224;27.910;2022-09-29T06:44:02;99618.97;;;27.91;100.00
11523;BME280;40093;43.224;27.910;2022-09-29T06:46:30;99620.50;;;28.03;100.00
11523;BME280;40093;43.224;27.910;2022-09-29T06:48:58;99620.50;;;27.92;94.66
11523;BME280;40093;43.224;27.910;2022-09-29T06:51:26;99623.09;;;27.79;76.54
11523;BME280;40093;43.224;27.910;2022-09-29T06:53:53;99628.75;;;27.90;65.74
11523;BME280;40093;43.224;27.910;2022-09-29T06:56:20;99625.66;;;27.99;65.25
11523;BME280;40093;43.224;27.910;2022-09-29T06:58:46;99622.31;;;28.01;65.62
11523;BME280;40093;43.224;27.910;2022-09-29T07:01:13;99622.03;;;28.04;65.35
11523;BME280;40093;43.224;27.910;2022-09-29T07:03:40;99619.19;;;28.10;64.60
11523;BME280;40093;43.224;27.910;2022-09-29T07:06:09;99626.16;;;28.03;60.07
11523;BME280;40093;43.224;27.910;2022-09-29T07:08:37;99625.38;;;28.14;58.33
11523;BME280;40093;43.224;27.910;2022-09-29T07:11:05;99623.06;;;28.12;59.16
11523;BME280;40093;43.224;27.910;2022-09-29T07:13:32;99611.47;;;28.27;58.50
11523;BME280;40093;43.224;27.910;2022-09-29T07:16:03;99610.41;;;28.46;59.04
11523;BME280;40093;43.224;27.910;2022-09-29T07:18:32;99623.75;;;28.62;57.83
11523;BME280;40093;43.224;27.910;2022-09-29T07:21:02;99626.03;;;28.69;58.09
11523;BME280;40093;43.224;27.910;2022-09-29T07:23:31;99620.16;;;28.62;58.13
11523;BME280;40093;43.224;27.910;2022-09-29T07:25:58;99624.25;;;28.66;58.09
11523;BME280;40093;43.224;27.910;2022-09-29T07:28:26;99624.78;;;28.65;57.87
11523;BME280;40093;43.224;27.910;2022-09-29T07:30:58;99631.50;;;28.51;58.65
11523;BME280;40093;43.224;27.910;2022-09-29T07:33:25;99624.97;;;28.83;59.55
11523;BME280;40093;43.224;27.910;2022-09-29T07:35:51;99635.22;;;28.97;59.55
11523;BME280;40093;43.224;27.910;2022-09-29T07:38:18;99624.63;;;29.08;59.03
11523;BME280;40093;43.224;27.910;2022-09-29T07:40:47;99621.91;;;29.32;58.08
11523;BME280;40093;43.224;27.910;2022-09-29T07:43:13;99625.13;;;29.53;59.66
11523;BME280;40093;43.224;27.910;2022-09-29T07:45:46;99628.72;;;29.59;60.55
11523;BME280;40093;43.224;27.910;2022-09-29T07:48:13;99635.84;;;29.71;60.01
11523;BME280;40093;43.224;27.910;2022-09-29T07:50:40;99640.34;;;29.85;59.42
11523;BME280;40093;43.224;27.910;2022-09-29T07:53:06;99648.06;;;29.90;59.40
11523;BME280;40093;43.224;27.910;2022-09-29T07:55:33;99651.41;;;29.88;57.77
11523;BME280;40093;43.224;27.910;2022-09-29T07:58:02;99646.63;;;29.78;58.08
11523;BME280;40093;43.224;27.910;2022-09-29T08:00:30;99645.09;;;29.77;57.51
11523;BME280;40093;43.224;27.910;2022-09-29T08:02:59;99638.44;;;29.69;56.96
11523;BME280;40093;43.224;27.910;2022-09-29T08:05:27;99637.72;;;29.57;57.38
11523;BME280;40093;43.224;27.910;2022-09-29T08:07:54;99632.38;;;29.48;57.35
11523;BME280;40093;43.224;27.910;2022-09-29T08:10:22;99636.78;;;29.44;56.01
11523;BME280;40093;43.224;27.910;2022-09-29T08:12:49;99630.13;;;29.36;56.21
11523;BME280;40093;43.224;27.910;2022-09-29T08:15:17;99646.38;;;29.30;57.29
11523;BME280;40093;43.224;27.910;2022-09-29T08:17:44;99640.72;;;29.30;56.28
11523;BME280;40093;43.224;27.910;2022-09-29T08:20:11;99636.13;;;29.21;56.27
11523;BME280;40093;43.224;27.910;2022-09-29T08:22:38;99647.03;;;29.12;57.25
11523;BME280;40093;43.224;27.910;2022-09-29T08:25:06;99645.03;;;28.85;56.58
11523;BME280;40093;43.224;27.910;2022-09-29T08:27:33;99643.28;;;28.76;54.86
11523;BME280;40093;43.224;27.910;2022-09-29T08:30:00;99653.81;;;28.76;55.36
11523;BME280;40093;43.224;27.910;2022-09-29T08:32:28;99643.50;;;28.84;54.49
11523;BME280;40093;43.224;27.910;2022-09-29T08:34:55;99642.19;;;28.90;54.04
11523;BME280;40093;43.224;27.910;2022-09-29T08:37:22;99637.06;;;28.83;54.42
11523;BME280;40093;43.224;27.910;2022-09-29T08:39:48;99643.53;;;28.73;55.75
11523;BME280;40093;43.224;27.910;2022-09-29T08:42:20;99638.94;;;28.65;56.69
11523;BME280;40093;43.224;27.910;2022-09-29T08:44:51;99648.19;;;28.65;56.81
11523;BME280;40093;43.224;27.910;2022-09-29T08:47:25;99645.41;;;28.43;58.01
11523;BME280;40093;43.224;27.910;2022-09-29T08:49:57;99639.75;;;28.43;58.74
11523;BME280;40093;43.224;27.910;2022-09-29T08:52:29;99645.63;;;28.56;58.07
11523;BME280;40093;43.224;27.910;2022-09-29T08:55:01;99648.44;;;28.67;58.29
11523;BME280;40093;43.224;27.910;2022-09-29T08:57:30;99641.47;;;28.68;58.27
11523;BME280;40093;43.224;27.910;2022-09-29T08:59:59;99637.41;;;28.58;59.24
11523;BME280;40093;43.224;27.910;2022-09-29T09:03:01;99646.09;;;28.82;59.08
11523;BME280;40093;43.224;27.910;2022-09-29T09:08:44;99641.94;;;28.94;57.65
11523;BME280;40093;43.224;27.910;2022-09-29T09:11:27;99644.53;;;28.92;58.07
11523;BME280;40093;43.224;27.910;2022-09-29T09:14:06;99630.41;;;28.75;58.19
11523;BME280;40093;43.224;27.910;2022-09-29T09:16:44;99647.06;;;28.90;57.89
11523;BME280;40093;43.224;27.910;2022-09-29T09:19:41;99647.88;;;28.85;58.33
11523;BME280;40093;43.224;27.910;2022-09-29T09:22:21;99644.28;;;28.73;59.75
11523;BME280;40093;43.224;27.910;2022-09-29T09:24:55;99641.03;;;28.48;63.37
11523;BME280;40093;43.224;27.910;2022-09-29T09:27:25;99644.41;;;28.19;68.01
11523;BME280;40093;43.224;27.910;2022-09-29T09:30:02;99631.81;;;27.81;71.10
11523;BME280;40093;43.224;27.910;2022-09-29T09:32:34;99628.69;;;27.57;73.74
11523;BME280;40093;43.224;27.910;2022-09-29T09:35:15;99634.09;;;27.66;74.99
11523;BME280;40093;43.224;27.910;2022-09-29T09:37:48;99636.41;;;27.62;76.05
11523;BME280;40093;43.224;27.910;2022-09-29T09:40:20;99637.44;;;27.70;76.25
11523;BME280;40093;43.224;27.910;2022-09-29T09:42:52;99640.06;;;27.74;77.04
11523;BME280;40093;43.224;27.910;2022-09-29T09:45:28;99641.53;;;27.58;78.14
11523;BME280;40093;43.224;27.910;2022-09-29T09:48:01;99633.56;;;27.62;78.38
11523;BME280;40093;43.224;27.910;2022-09-29T09:50:38;99649.00;;;27.56;78.87
11523;BME280;40093;43.224;27.910;2022-09-29T09:53:14;99642.31;;;27.42;79.81
11523;BME280;40093;43.224;27.910;2022-09-29T09:55:41;99657.47;;;27.50;79.37
11523;BME280;40093;43.224;27.910;2022-09-29T09:58:21;99666.94;;;27.42;80.55
11523;BME280;40093;43.224;27.910;2022-09-29T10:00:55;99666.13;;;27.30;80.66
11523;BME280;40093;43.224;27.910;2022-09-29T10:03:23;99654.00;;;27.08;82.11
11523;BME280;40093;43.224;27.910;2022-09-29T10:05:50;99660.63;;;26.99;82.86
11523;BME280;40093;43.224;27.910;2022-09-29T10:08:22;99672.38;;;26.87;84.33
11523;BME280;40093;43.224;27.910;2022-09-29T10:10:50;99659.94;;;26.62;85.66
11523;BME280;40093;43.224;27.910;2022-09-29T10:13:18;99666.69;;;26.76;85.39
11523;BME280;40093;43.224;27.910;2022-09-29T10:15:49;99670.28;;;26.76;85.76
11523;BME280;40093;43.224;27.910;2022-09-29T10:18:23;99668.41;;;26.62;86.07
11523;BME280;40093;43.224;27.910;2022-09-29T10:20:53;99664.66;;;26.45;87.94
11523;BME280;40093;43.224;27.910;2022-09-29T10:23:26;99663.06;;;26.33;89.04
11523;BME280;40093;43.224;27.910;2022-09-29T10:25:59;99657.91;;;26.26;90.40
11523;BME280;40093;43.224;27.910;2022-09-29T10:28:35;99664.34;;;26.32;90.91
11523;BME280;40093;43.224;27.910;2022-09-29T10:31:15;99653.88;;;26.38;90.02
11523;BME280;40093;43.224;27.910;2022-09-29T10:33:46;99663.38;;;26.41;90.67
11523;BME280;40093;43.224;27.910;2022-09-29T10:36:14;99659.78;;;26.40;90.01
11523;BME280;40093;43.224;27.910;2022-09-29T10:38:47;99665.88;;;26.33;91.30
11523;BME280;40093;43.224;27.910;2022-09-29T10:41:14;99666.84;;;26.25;91.93
11523;BME280;40093;43.224;27.910;2022-09-29T10:43:45;99657.91;;;26.26;92.37
11523;BME280;40093;43.224;27.910;2022-09-29T10:46:45;99656.09;;;26.29;92.02
11523;BME280;40093;43.224;27.910;2022-09-29T10:49:15;99646.38;;;26.30;91.57
11523;BME280;40093;43.224;27.910;2022-09-29T10:51:51;99642.56;;;26.33;91.76
11523;BME280;40093;43.224;27.910;2022-09-29T10:54:22;99654.41;;;26.42;90.64
11523;BME280;40093;43.224;27.910;2022-09-29T10:56:52;99651.63;;;26.48;90.18
11523;BME280;40093;43.224;27.910;2022-09-29T10:59:20;99649.69;;;26.28;90.71
11523;BME280;40093;43.224;27.910;2022-09-29T11:01:50;99652.78;;;26.30;90.69
11523;BME280;40093;43.224;27.910;2022-09-29T11:04:21;99646.53;;;26.15;91.33
11523;BME280;40093;43.224;27.910;2022-09-29T11:06:50;99651.31;;;26.04;91.75
11523;BME280;40093;43.224;27.910;2022-09-29T11:09:28;99640.75;;;25.93;93.25
11523;BME280;40093;43.224;27.910;2022-09-29T11:11:57;99629.47;;;25.93;93.84
11523;BME280;40093;43.224;27.910;2022-09-29T11:14:28;99641.28;;;25.97;93.89
11523;BME280;40093;43.224;27.910;2022-09-29T11:16:57;99633.34;;;26.01;94.26
11523;BME280;40093;43.224;27.910;2022-09-29T11:19:24;99630.16;;;26.19;93.77
11523;BME280;40093;43.224;27.910;2022-09-29T11:22:18;99639.44;;;26.25;93.09
11523;BME280;40093;43.224;27.910;2022-09-29T11:24:58;99620.59;;;26.11;94.35
11523;BME280;40093;43.224;27.910;2022-09-29T11:27:39;99628.00;;;26.03;95.26
11523;BME280;40093;43.224;27.910;2022-09-29T11:30:13;99620.44;;;25.89;96.11
11523;BME280;40093;43.224;27.910;2022-09-29T11:33:10;99623.72;;;25.83;98.06
11523;BME280;40093;43.224;27.910;2022-09-29T11:35:46;99629.00;;;25.75;99.36
11523;BME280;40093;43.224;27.910;2022-09-29T11:38:40;99632.78;;;25.67;100.00
11523;BME280;40093;43.224;27.910;2022-09-29T11:41:17;99624.13;;;25.45;100.00
11523;BME280;40093;43.224;27.910;2022-09-29T11:43:49;99636.34;;;25.36;100.00
11523;BME280;40093;43.224;27.910;2022-09-29T11:46:33;99625.44;;;25.04;100.00
11523;BME280;40093;43.224;27.910;2022-09-29T11:49:36;99632.22;;;24.92;100.00
11523;BME280;40093;43.224;27.910;2022-09-29T11:52:38;99629.81;;;24.85;100.00
11523;BME280;40093;43.224;27.910;2022-09-29T11:55:32;99630.59;;;24.85;100.00
11523;BME280;40093;43.224;27.910;2022-09-29T11:58:16;99624.34;;;24.56;100.00
11523;BME280;40093;43.224;27.910;2022-09-29T12:01:00;99621.28;;;24.39;100.00
11523;BME280;40093;43.224;27.910;2022-09-29T12:03:37;99631.94;;;24.35;100.00
11523;BME280;40093;43.224;27.910;2022-09-29T12:06:21;99637.03;;;24.31;100.00
11523;BME280;40093;43.224;27.910;2022-09-29T12:09:01;99631.47;;;24.37;100.00
11523;BME280;40093;43.224;27.910;2022-09-29T12:11:40;99624.22;;;24.30;100.00
11523;BME280;40093;43.224;27.910;2022-09-29T12:14:20;99628.72;;;24.57;100.00
11523;BME280;40093;43.224;27.910;2022-09-29T12:16:54;99626.88;;;24.74;100.00
11523;BME280;40093;43.224;27.910;2022-09-29T12:19:25;99628.22;;;24.78;100.00
11523;BME280;40093;43.224;27.910;2022-09-29T12:21:56;99631.38;;;24.86;100.00
11523;BME280;40093;43.224;27.910;2022-09-29T12:24:33;99630.94;;;24.93;100.00
11523;BME280;40093;43.224;27.910;2022-09-29T12:27:04;99628.00;;;24.82;100.00
11523;BME280;40093;43.224;27.910;2022-09-29T12:29:38;99637.56;;;24.90;100.00
11523;BME280;40093;43.224;27.910;2022-09-29T12:32:12;99627.88;;;24.91;100.00
11523;BME280;40093;43.224;27.910;2022-09-29T12:34:44;99635.78;;;25.12;100.00
11523;BME280;40093;43.224;27.910;2022-09-29T12:37:15;99644.16;;;25.27;100.00
11523;BME280;40093;43.224;27.910;2022-09-29T12:39:50;99642.28;;;25.44;100.00
11523;BME280;40093;43.224;27.910;2022-09-29T12:42:52;99632.41;;;25.54;100.00
11523;BME280;40093;43.224;27.910;2022-09-29T12:45:26;99629.69;;;25.65;100.00
11523;BME280;40093;43.224;27.910;2022-09-29T12:48:03;99627.97;;;25.73;100.00
11523;BME280;40093;43.224;27.910;2022-09-29T12:50:37;99633.41;;;25.81;100.00
11523;BME280;40093;43.224;27.910;2022-09-29T12:53:11;99627.47;;;25.74;100.00
11523;BME280;40093;43.224;27.910;2022-09-29T12:55:45;99633.19;;;25.85;100.00
11523;BME280;40093;43.224;27.910;2022-09-29T12:58:18;99625.84;;;25.93;100.00
11523;BME280;40093;43.224;27.910;2022-09-29T13:00:51;99619.31;;;26.12;100.00
11523;BME280;40093;43.224;27.910;2022-09-29T13:03:37;99623.69;;;26.13;100.00
11523;BME280;40093;43.224;27.910;2022-09-29T13:06:31;99628.16;;;26.25;100.00
11523;BME280;40093;43.224;27.910;2022-09-29T13:09:29;99627.38;;;26.25;100.00
11523;BME280;40093;43.224;27.910;2022-09-29T13:12:22;99629.13;;;26.22;100.00
11523;BME280;40093;43.224;27.910;2022-09-29T13:15:03;99621.97;;;26.21;100.00